Time,TemperatureF,DewpointF,PressureIn,WindDirection,WindDirectionDegrees,WindSpeedMPH,WindSpeedGustMPH,Humidity,HourlyPrecipIn,Conditions,Clouds,dailyrainin,SolarRadiationWatts/m^2,SoftwareType,DateUTC
2013-10-12 00:00:00,48.0,29.0,-100.00,WNW,289,6.0,11.0,47,0.00,,,0.00,0.000000,,2013-10-12 07:00:00,
2013-10-12 00:42:00,48.0,29.0,-100.00,WNW,289,6.0,11.0,47,0.00,,,0.00,0.000000,,2013-10-12 07:42:00,
2013-10-12 00:52:00,48.0,29.0,-100.00,WNW,289,6.0,11.0,47,0.00,,,0.00,0.000000,,2013-10-12 07:52:00,
2013-10-12 01:00:00,50.0,31.0,-100.00,WNW,290,7.0,11.0,47,0.00,,,-99.99,0.000000,,2013-10-12 08:00:00,
2013-10-12 01:23:00,50.0,31.0,-100.00,WNW,290,7.0,11.0,47,0.00,,,-99.99,0.000000,,2013-10-12 08:23:00,
2013-10-12 01:32:00,50.0,31.0,-100.00,WNW,290,7.0,11.0,47,0.00,,,-99.99,0.000000,,2013-10-12 08:32:00,
2013-10-12 01:42:00,50.0,31.0,-100.00,WNW,290,7.0,11.0,47,0.00,,,-99.99,0.000000,,2013-10-12 08:42:00,
2013-10-12 01:52:00,50.0,31.0,-100.00,WNW,290,7.0,11.0,47,0.00,,,-99.99,0.000000,,2013-10-12 08:52:00,
2013-10-12 02:00:00,48.0,28.0,-100.00,WNW,297,8.0,11.0,46,0.00,,,0.00,0.000000,,2013-10-12 09:00:00,
2013-10-12 02:22:00,48.0,28.0,-100.00,WNW,297,8.0,11.0,46,0.00,,,0.00,0.000000,,2013-10-12 09:22:00,
2013-10-12 02:33:00,48.0,28.0,-100.00,WNW,297,8.0,11.0,46,0.00,,,0.00,0.000000,,2013-10-12 09:33:00,
2013-10-12 02:43:00,48.0,28.0,-100.00,WNW,297,8.0,11.0,46,0.00,,,0.00,0.000000,,2013-10-12 09:43:00,
2013-10-12 02:54:00,48.0,28.0,-100.00,WNW,297,8.0,11.0,46,0.00,,,0.00,0.000000,,2013-10-12 09:54:00,
2013-10-12 03:00:00,46.0,26.0,-100.00,WNW,300,8.0,13.0,45,0.00,,,0.00,0.000000,,2013-10-12 10:00:00,
2013-10-12 03:42:00,46.0,26.0,-100.00,WNW,300,8.0,13.0,45,0.00,,,0.00,0.000000,,2013-10-12 10:42:00,
2013-10-12 03:52:00,46.0,26.0,-100.00,WNW,300,8.0,13.0,45,0.00,,,0.00,0.000000,,2013-10-12 10:52:00,
2013-10-12 04:00:00,45.0,27.0,-100.00,WNW,296,8.0,11.0,50,0.00,,,0.00,0.000000,,2013-10-12 11:00:00,
2013-10-12 04:42:00,45.0,27.0,-100.00,WNW,296,8.0,11.0,50,0.00,,,0.00,0.000000,,2013-10-12 11:42:00,
2013-10-12 04:52:00,45.0,27.0,-100.00,WNW,296,8.0,11.0,50,0.00,,,0.00,0.000000,,2013-10-12 11:52:00,
2013-10-12 05:00:00,46.0,28.0,-100.00,WNW,288,7.0,12.0,50,0.00,,,0.00,0.000000,,2013-10-12 12:00:00,
2013-10-12 05:42:00,46.0,28.0,-100.00,WNW,288,7.0,12.0,50,0.00,,,0.00,0.000000,,2013-10-12 12:42:00,
2013-10-12 05:52:00,46.0,28.0,-100.00,WNW,288,7.0,12.0,50,0.00,,,0.00,0.000000,,2013-10-12 12:52:00,
2013-10-12 06:00:00,45.0,28.0,-100.00,WNW,296,9.0,12.0,51,0.00,,,0.00,0.000000,,2013-10-12 13:00:00,
2013-10-12 06:42:00,45.0,28.0,-100.00,WNW,296,9.0,12.0,51,0.00,,,0.00,0.000000,,2013-10-12 13:42:00,
2013-10-12 06:52:00,45.0,28.0,-100.00,WNW,296,9.0,12.0,51,0.00,,,0.00,0.000000,,2013-10-12 13:52:00,
2013-10-12 07:00:00,45.0,29.0,-100.00,WNW,290,6.0,12.0,53,0.00,,,0.00,0.000000,,2013-10-12 14:00:00,
2013-10-12 07:42:00,45.0,29.0,-100.00,WNW,290,6.0,12.0,53,0.00,,,0.00,0.000000,,2013-10-12 14:42:00,
2013-10-12 07:52:00,45.0,29.0,-100.00,WNW,290,6.0,12.0,53,0.00,,,0.00,0.000000,,2013-10-12 14:52:00,
2013-10-12 08:00:00,43.0,26.0,-100.00,WNW,294,8.0,11.0,50,0.00,,,0.00,0.000000,,2013-10-12 15:00:00,
2013-10-12 08:22:00,43.0,26.0,-100.00,WNW,294,8.0,11.0,50,0.00,,,0.00,0.000000,,2013-10-12 15:22:00,
2013-10-12 08:33:00,43.0,26.0,-100.00,WNW,294,8.0,11.0,50,0.00,,,0.00,0.000000,,2013-10-12 15:33:00,
2013-10-12 08:44:00,43.0,26.0,-100.00,WNW,294,8.0,11.0,50,0.00,,,0.00,0.000000,,2013-10-12 15:44:00,
2013-10-12 08:53:00,43.0,26.0,-100.00,WNW,294,8.0,11.0,50,0.00,,,0.00,0.000000,,2013-10-12 15:53:00,
2013-10-12 09:00:00,52.0,29.0,-100.00,ESE,103,0.0,11.0,41,0.00,,,0.00,103.000000,,2013-10-12 16:00:00,
2013-10-12 09:43:00,52.0,29.0,-100.00,ESE,103,0.0,11.0,41,0.00,,,0.00,103.000000,,2013-10-12 16:43:00,
2013-10-12 09:53:00,52.0,29.0,-100.00,ESE,103,0.0,11.0,41,0.00,,,0.00,103.000000,,2013-10-12 16:53:00,
2013-10-12 10:00:00,56.0,29.0,-100.00,ESE,106,1.0,6.0,36,0.00,,,0.00,343.000000,,2013-10-12 17:00:00,
2013-10-12 10:42:00,56.0,29.0,-100.00,ESE,106,1.0,6.0,36,0.00,,,0.00,343.000000,,2013-10-12 17:42:00,
2013-10-12 10:53:00,56.0,29.0,-100.00,ESE,106,1.0,6.0,36,0.00,,,0.00,343.000000,,2013-10-12 17:53:00,
2013-10-12 11:00:00,61.0,29.0,-100.00,East,100,4.0,10.0,30,-99.99,,,0.00,587.000000,,2013-10-12 18:00:00,
2013-10-12 11:22:00,61.0,29.0,-100.00,East,100,4.0,10.0,30,-99.99,,,0.00,587.000000,,2013-10-12 18:22:00,
2013-10-12 11:32:00,61.0,29.0,-100.00,East,100,4.0,10.0,30,-99.99,,,0.00,587.000000,,2013-10-12 18:32:00,
2013-10-12 11:42:00,61.0,29.0,-100.00,East,100,4.0,10.0,30,-99.99,,,0.00,587.000000,,2013-10-12 18:42:00,
2013-10-12 11:52:00,61.0,29.0,-100.00,East,100,4.0,10.0,30,-99.99,,,0.00,587.000000,,2013-10-12 18:52:00,
2013-10-12 12:00:00,64.0,28.0,-100.00,East,101,4.0,8.0,26,0.00,,,0.00,768.000000,,2013-10-12 19:00:00,
2013-10-12 12:42:00,64.0,28.0,-100.00,East,101,4.0,8.0,26,0.00,,,0.00,768.000000,,2013-10-12 19:42:00,
2013-10-12 12:52:00,64.0,28.0,-100.00,East,101,4.0,8.0,26,0.00,,,0.00,768.000000,,2013-10-12 19:52:00,
2013-10-12 13:00:00,67.0,29.0,-100.00,ESE,113,5.0,10.0,24,0.00,,,0.00,967.000000,,2013-10-12 20:00:00,
2013-10-12 13:42:00,67.0,29.0,-100.00,ESE,113,5.0,10.0,24,0.00,,,0.00,967.000000,,2013-10-12 20:42:00,
2013-10-12 13:52:00,67.0,29.0,-100.00,ESE,113,5.0,10.0,24,0.00,,,0.00,967.000000,,2013-10-12 20:52:00,
2013-10-12 14:00:00,69.0,27.0,-100.00,ESE,111,5.0,11.0,21,0.00,,,0.00,1027.000000,,2013-10-12 21:00:00,
2013-10-12 14:22:00,69.0,27.0,-100.00,ESE,111,5.0,11.0,21,0.00,,,0.00,1027.000000,,2013-10-12 21:22:00,
2013-10-12 14:35:00,69.0,27.0,-100.00,ESE,111,5.0,11.0,21,0.00,,,0.00,1027.000000,,2013-10-12 21:35:00,
2013-10-12 14:43:00,69.0,27.0,-100.00,ESE,111,5.0,11.0,21,0.00,,,0.00,1027.000000,,2013-10-12 21:43:00,
2013-10-12 14:54:00,69.0,27.0,-100.00,ESE,111,5.0,11.0,21,0.00,,,0.00,1027.000000,,2013-10-12 21:54:00,
2013-10-12 15:00:00,71.0,27.0,-100.00,West,264,7.0,17.0,19,0.00,,,0.00,992.000000,,2013-10-12 22:00:00,
2013-10-12 15:43:00,71.0,27.0,-100.00,West,264,7.0,17.0,19,0.00,,,0.00,992.000000,,2013-10-12 22:43:00,
2013-10-12 15:54:00,71.0,27.0,-100.00,West,264,7.0,17.0,19,0.00,,,0.00,992.000000,,2013-10-12 22:54:00,
2013-10-12 16:00:00,72.0,27.0,-100.00,West,268,10.0,20.0,19,0.00,,,0.00,893.000000,,2013-10-12 23:00:00,
2013-10-12 16:22:00,72.0,27.0,-100.00,West,268,10.0,20.0,19,0.00,,,0.00,893.000000,,2013-10-12 23:22:00,
2013-10-12 16:33:00,72.0,27.0,-100.00,West,268,10.0,20.0,19,0.00,,,0.00,893.000000,,2013-10-12 23:33:00,
2013-10-12 16:42:00,72.0,27.0,-100.00,West,268,10.0,20.0,19,0.00,,,0.00,893.000000,,2013-10-12 23:42:00,
2013-10-12 16:52:00,72.0,27.0,-100.00,West,268,10.0,20.0,19,0.00,,,0.00,893.000000,,2013-10-12 23:52:00,
2013-10-12 17:00:00,69.0,26.0,-100.00,WNW,285,12.0,24.0,20,0.00,,,0.00,705.000000,,2013-10-13 00:00:00,
2013-10-12 17:22:00,69.0,26.0,-100.00,WNW,285,12.0,24.0,20,0.00,,,0.00,705.000000,,2013-10-13 00:22:00,
2013-10-12 17:32:00,69.0,26.0,-100.00,WNW,285,12.0,24.0,20,0.00,,,0.00,705.000000,,2013-10-13 00:32:00,
2013-10-12 17:42:00,69.0,26.0,-100.00,WNW,285,12.0,24.0,20,0.00,,,0.00,705.000000,,2013-10-13 00:42:00,
2013-10-12 17:52:00,69.0,26.0,-100.00,WNW,285,12.0,24.0,20,0.00,,,0.00,705.000000,,2013-10-13 00:52:00,
2013-10-12 18:00:00,65.0,24.0,-100.00,WNW,288,17.0,30.0,21,0.00,,,0.00,468.000000,,2013-10-13 01:00:00,
2013-10-12 18:42:00,65.0,24.0,-100.00,WNW,288,17.0,30.0,21,0.00,,,0.00,468.000000,,2013-10-13 01:42:00,
2013-10-12 18:52:00,65.0,24.0,-100.00,WNW,288,17.0,30.0,21,0.00,,,0.00,468.000000,,2013-10-13 01:52:00,
2013-10-12 20:00:00,-999.0,-99.9,-100.00,WSW,251,10.0,21.0,-999,-99.99,,,-99.99,4.000000,,2013-10-13 03:00:00,
2013-10-12 20:54:00,59.0,19.0,-100.00,WSW,251,10.0,21.0,21,0.00,,,0.00,4.000000,,2013-10-13 03:54:00,
2013-10-12 21:00:00,59.0,19.0,-100.00,WNW,289,7.0,19.0,21,0.00,,,0.00,0.000000,,2013-10-13 04:00:00,
2013-10-12 21:43:00,59.0,19.0,-100.00,WNW,289,7.0,19.0,21,0.00,,,0.00,0.000000,,2013-10-13 04:43:00,
2013-10-12 21:54:00,59.0,19.0,-100.00,WNW,289,7.0,19.0,21,0.00,,,0.00,0.000000,,2013-10-13 04:54:00,
2013-10-12 22:00:00,58.0,18.0,-100.00,West,277,8.0,18.0,21,0.00,,,0.00,0.000000,,2013-10-13 05:00:00,
2013-10-12 22:43:00,58.0,18.0,-100.00,West,277,8.0,18.0,21,0.00,,,0.00,0.000000,,2013-10-13 05:43:00,
2013-10-12 22:52:00,58.0,18.0,-100.00,West,277,8.0,18.0,21,0.00,,,0.00,0.000000,,2013-10-13 05:52:00,
2013-10-12 23:00:00,57.0,20.0,-100.00,WNW,283,5.0,18.0,23,0.00,,,0.00,0.000000,,2013-10-13 06:00:00,
2013-10-12 23:22:00,57.0,20.0,-100.00,WNW,283,5.0,18.0,23,0.00,,,0.00,0.000000,,2013-10-13 06:22:00,
2013-10-12 23:32:00,57.0,20.0,-100.00,WNW,283,5.0,18.0,23,0.00,,,0.00,0.000000,,2013-10-13 06:32:00,
2013-10-12 23:42:00,57.0,20.0,-100.00,WNW,283,5.0,18.0,23,0.00,,,0.00,0.000000,,2013-10-13 06:42:00,
2013-10-12 23:52:00,57.0,20.0,-100.00,WNW,283,5.0,18.0,23,0.00,,,0.00,0.000000,,2013-10-13 06:52:00,